createdAt,value
2017-10-27T00:00:23.586Z,11.32
2017-10-27T00:01:23.267Z,11.33
2017-10-27T00:02:23.373Z,11.33
2017-10-27T00:03:23.556Z,11.33
2017-10-27T00:04:23.461Z,11.32
2017-10-27T00:05:31.859Z,11.30
2017-10-27T00:06:22.659Z,11.30
2017-10-27T00:07:22.628Z,11.27
2017-10-27T00:08:22.878Z,11.27
2017-10-27T00:09:24.050Z,11.26
2017-10-27T00:10:23.260Z,11.23
2017-10-27T00:11:23.409Z,11.23
2017-10-27T00:12:23.147Z,11.23
2017-10-27T00:13:22.952Z,11.23
2017-10-27T00:14:22.896Z,11.22
2017-10-27T00:15:23.629Z,11.23
2017-10-27T00:16:22.917Z,11.22
2017-10-27T00:17:23.376Z,11.22
2017-10-27T00:18:23.618Z,11.22
2017-10-27T00:19:22.599Z,11.22
2017-10-27T00:20:24.119Z,11.22
2017-10-27T00:21:23.141Z,11.22
2017-10-27T00:22:23.439Z,11.19
2017-10-27T00:23:23.169Z,11.19
2017-10-27T00:24:23.242Z,11.18
2017-10-27T00:25:23.026Z,11.18
2017-10-27T00:26:23.550Z,11.17
2017-10-27T00:27:22.921Z,11.15
2017-10-27T00:28:22.730Z,11.14
2017-10-27T00:29:22.439Z,11.12
2017-10-27T00:30:23.189Z,11.11
2017-10-27T00:31:23.677Z,11.11
2017-10-27T00:32:22.762Z,11.12
2017-10-27T00:33:22.790Z,11.11
2017-10-27T00:34:22.757Z,11.10
2017-10-27T00:35:23.318Z,11.10
2017-10-27T00:36:23.799Z,11.08
2017-10-27T00:37:22.983Z,11.05
2017-10-27T00:38:22.785Z,11.05
2017-10-27T00:39:22.645Z,11.04
2017-10-27T00:40:22.416Z,11.02
2017-10-27T00:41:23.565Z,11.02
2017-10-27T00:42:22.469Z,10.97
2017-10-27T00:43:23.544Z,10.96
2017-10-27T00:44:23.251Z,10.93
2017-10-27T00:45:23.409Z,10.92
2017-10-27T00:46:23.675Z,10.89
2017-10-27T00:47:22.942Z,10.86
2017-10-27T00:48:23.088Z,10.82
2017-10-27T00:49:23.504Z,10.82
2017-10-27T00:50:23.908Z,10.84
2017-10-27T00:51:23.132Z,10.81
2017-10-27T00:52:23.036Z,10.78
2017-10-27T00:53:23.427Z,10.75
2017-10-27T00:54:22.443Z,10.76
2017-10-27T00:55:23.576Z,10.74
2017-10-27T00:56:22.441Z,10.74
2017-10-27T00:57:24.387Z,10.74
2017-10-27T00:58:23.632Z,10.74
2017-10-27T00:59:23.240Z,10.74
2017-10-27T01:00:24.108Z,10.71
2017-10-27T01:01:23.206Z,10.71
2017-10-27T01:02:23.689Z,10.68
2017-10-27T01:04:37.851Z,10.67
2017-10-27T01:05:38.643Z,10.68
2017-10-27T01:06:39.258Z,10.71
2017-10-27T01:07:38.216Z,10.71
2017-10-27T01:08:39.211Z,10.74
2017-10-27T01:09:39.158Z,10.74
2017-10-27T01:10:39.079Z,10.75
2017-10-27T01:11:38.857Z,10.75
2017-10-27T01:12:39.262Z,10.74
2017-10-27T01:13:39.084Z,10.74
2017-10-27T01:14:39.031Z,10.75
2017-10-27T01:15:38.952Z,10.75
2017-10-27T01:16:38.670Z,10.75
2017-10-27T01:17:38.906Z,10.76
2017-10-27T01:18:38.989Z,10.75
2017-10-27T01:19:38.560Z,10.78
2017-10-27T01:20:38.181Z,10.79
2017-10-27T01:21:37.970Z,10.76
2017-10-27T01:22:39.260Z,10.78
2017-10-27T01:23:38.429Z,10.76
2017-10-27T01:24:38.599Z,10.76
2017-10-27T01:25:38.559Z,10.78
2017-10-27T01:26:38.162Z,10.75
2017-10-27T01:27:39.414Z,10.75
2017-10-27T01:28:38.663Z,10.74
2017-10-27T01:29:39.182Z,10.72
2017-10-27T01:30:38.227Z,10.74
2017-10-27T01:31:38.803Z,10.71
2017-10-27T01:32:38.744Z,10.69
2017-10-27T01:33:38.461Z,10.71
2017-10-27T01:34:38.176Z,10.69
2017-10-27T01:35:38.361Z,10.64
2017-10-27T01:36:38.016Z,10.61
2017-10-27T01:37:38.802Z,10.61
2017-10-27T01:38:39.196Z,10.59
2017-10-27T01:39:38.240Z,10.56
2017-10-27T01:40:38.878Z,10.53
2017-10-27T01:41:38.923Z,10.51
2017-10-27T01:42:38.642Z,10.49
2017-10-27T01:43:38.978Z,10.48
2017-10-27T01:44:38.598Z,10.49
2017-10-27T01:45:38.660Z,10.51
2017-10-27T01:46:38.645Z,10.49
2017-10-27T01:47:38.232Z,10.48
2017-10-27T01:48:38.512Z,10.49
2017-10-27T01:49:38.269Z,10.48
2017-10-27T01:50:37.975Z,10.42
2017-10-27T01:51:39.052Z,10.41
2017-10-27T01:52:39.112Z,10.41
2017-10-27T01:53:39.412Z,10.46
2017-10-27T01:54:38.090Z,10.46
2017-10-27T01:55:38.229Z,10.49
2017-10-27T01:56:38.521Z,10.51
2017-10-27T01:57:38.480Z,10.53
2017-10-27T01:58:38.171Z,10.53
2017-10-27T01:59:37.969Z,10.49
2017-10-27T02:00:38.982Z,10.49
2017-10-27T02:01:38.250Z,10.48
2017-10-27T02:02:39.167Z,10.46
2017-10-27T02:03:38.190Z,10.42
2017-10-27T02:04:38.780Z,10.48
2017-10-27T02:05:38.588Z,10.49
2017-10-27T02:06:38.616Z,10.51
2017-10-27T02:07:38.635Z,10.54
2017-10-27T02:08:39.109Z,10.56
2017-10-27T02:09:37.891Z,10.57
2017-10-27T02:10:39.052Z,10.59
2017-10-27T02:11:39.063Z,10.57
2017-10-27T02:12:38.738Z,10.59
2017-10-27T02:13:38.524Z,10.56
2017-10-27T02:14:39.164Z,10.56
2017-10-27T02:15:38.746Z,10.57
2017-10-27T02:16:38.392Z,10.57
2017-10-27T02:17:38.191Z,10.57
2017-10-27T02:18:38.678Z,10.56
2017-10-27T02:19:38.781Z,10.57
2017-10-27T02:20:38.398Z,10.54
2017-10-27T02:21:38.213Z,10.51
2017-10-27T02:22:37.964Z,10.51
2017-10-27T02:23:38.818Z,10.46
2017-10-27T02:24:38.711Z,10.42
2017-10-27T02:25:38.892Z,10.42
2017-10-27T02:26:39.184Z,10.42
2017-10-27T02:27:38.096Z,10.42
2017-10-27T02:28:38.992Z,10.46
2017-10-27T02:29:38.945Z,10.42
2017-10-27T02:30:39.247Z,10.41
2017-10-27T02:31:38.314Z,10.40
2017-10-27T02:32:38.244Z,10.37
2017-10-27T02:33:38.323Z,10.35
2017-10-27T02:34:38.632Z,10.34
2017-10-27T02:35:38.524Z,10.34
2017-10-27T02:36:38.692Z,10.35
2017-10-27T02:37:38.254Z,10.34
2017-10-27T02:38:38.066Z,10.33
2017-10-27T02:39:37.999Z,10.31
2017-10-27T02:40:39.412Z,10.34
2017-10-27T02:41:38.702Z,10.33
2017-10-27T02:42:39.154Z,10.35
2017-10-27T02:43:38.928Z,10.34
2017-10-27T02:44:39.104Z,10.35
2017-10-27T02:45:39.304Z,10.37
2017-10-27T02:46:39.112Z,10.37
2017-10-27T02:47:37.864Z,10.37
2017-10-27T02:48:38.576Z,10.35
2017-10-27T02:49:38.669Z,10.34
2017-10-27T02:50:38.835Z,10.34
2017-10-27T02:51:39.260Z,10.33
2017-10-27T02:52:38.031Z,10.33
2017-10-27T02:53:37.975Z,10.30
2017-10-27T02:54:38.903Z,10.31
2017-10-27T02:55:38.581Z,10.30
2017-10-27T02:56:38.662Z,10.28
2017-10-27T02:57:38.585Z,10.28
2017-10-27T02:58:38.244Z,10.25
2017-10-27T02:59:38.270Z,10.26
2017-10-27T03:00:38.187Z,10.28
2017-10-27T03:01:38.352Z,10.30
2017-10-27T03:02:38.874Z,10.30
2017-10-27T03:03:38.988Z,10.30
2017-10-27T03:04:37.871Z,10.26
2017-10-27T03:05:38.657Z,10.19
2017-10-27T03:06:38.810Z,10.20
2017-10-27T03:07:39.297Z,10.17
2017-10-27T03:08:37.967Z,10.17
2017-10-27T03:09:37.876Z,10.17
2017-10-27T03:10:38.618Z,10.16
2017-10-27T03:11:38.260Z,10.16
2017-10-27T03:12:38.029Z,10.13
2017-10-27T03:13:39.218Z,10.10
2017-10-27T03:14:38.595Z,10.05
2017-10-27T03:15:38.176Z,10.04
2017-10-27T03:16:37.975Z,9.99
2017-10-27T03:17:37.880Z,9.99
2017-10-27T03:18:39.254Z,9.97
2017-10-27T03:19:38.387Z,9.94
2017-10-27T03:20:38.011Z,9.91
2017-10-27T03:21:39.137Z,9.86
2017-10-27T03:22:37.727Z,9.86
2017-10-27T03:23:38.883Z,9.82
2017-10-27T03:24:38.225Z,9.82
2017-10-27T03:25:38.395Z,9.80
2017-10-27T03:26:38.611Z,9.77
2017-10-27T03:27:38.227Z,9.76
2017-10-27T03:28:37.991Z,9.76
2017-10-27T03:29:38.174Z,9.73
2017-10-27T03:30:38.140Z,9.72
2017-10-27T03:31:37.711Z,9.72
2017-10-27T03:32:38.621Z,9.72
2017-10-27T03:33:38.347Z,9.76
2017-10-27T03:34:38.693Z,9.76
2017-10-27T03:35:38.694Z,9.73
2017-10-27T03:36:38.938Z,9.68
2017-10-27T03:37:39.098Z,9.65
2017-10-27T03:38:38.196Z,9.65
2017-10-27T03:39:38.591Z,9.65
2017-10-27T03:40:38.605Z,9.64
2017-10-27T03:41:38.218Z,9.62
2017-10-27T03:42:37.804Z,9.58
2017-10-27T03:43:38.985Z,9.54
2017-10-27T03:44:39.401Z,9.51
2017-10-27T03:45:38.419Z,9.51
2017-10-27T03:46:38.430Z,9.50
2017-10-27T03:47:38.099Z,9.47
2017-10-27T03:48:38.030Z,9.47
2017-10-27T03:49:39.031Z,9.47
2017-10-27T03:50:38.055Z,9.54
2017-10-27T03:51:38.713Z,9.56
2017-10-27T03:52:38.847Z,9.59
2017-10-27T03:53:38.601Z,9.62
2017-10-27T03:54:38.200Z,9.62
2017-10-27T03:55:38.705Z,9.64
2017-10-27T03:56:38.822Z,9.66
2017-10-27T03:57:38.112Z,9.69
2017-10-27T03:58:38.513Z,9.73
2017-10-27T03:59:38.065Z,9.72
2017-10-27T04:00:38.758Z,9.73
2017-10-27T04:01:38.585Z,9.73
2017-10-27T04:02:38.801Z,9.73
2017-10-27T04:03:38.398Z,9.72
2017-10-27T04:04:38.550Z,9.68
2017-10-27T04:05:38.860Z,9.66
2017-10-27T04:06:38.967Z,9.66
2017-10-27T04:07:39.089Z,9.64
2017-10-27T04:08:38.969Z,9.65
2017-10-27T04:09:38.243Z,9.66
2017-10-27T04:10:38.692Z,9.69
2017-10-27T04:11:37.886Z,9.72
2017-10-27T04:12:39.146Z,9.73
2017-10-27T04:13:38.210Z,9.73
2017-10-27T04:14:38.099Z,9.77
2017-10-27T04:15:38.599Z,9.79
2017-10-27T04:16:38.456Z,9.83
2017-10-27T04:17:38.408Z,9.84
2017-10-27T04:18:37.987Z,9.87
2017-10-27T04:19:38.659Z,9.87
2017-10-27T04:20:39.140Z,9.89
2017-10-27T04:21:37.880Z,9.91
2017-10-27T04:22:39.035Z,9.92
2017-10-27T04:23:37.786Z,9.91
2017-10-27T04:24:38.830Z,9.94
2017-10-27T04:25:39.545Z,9.95
2017-10-27T04:26:38.658Z,9.94
2017-10-27T04:27:38.717Z,9.97
2017-10-27T04:28:38.636Z,9.98
2017-10-27T04:29:38.667Z,9.98
2017-10-27T04:30:38.140Z,9.98
2017-10-27T04:31:38.809Z,9.95
2017-10-27T04:32:38.075Z,9.97
2017-10-27T04:33:38.264Z,9.95
2017-10-27T04:34:38.342Z,9.94
2017-10-27T04:35:38.169Z,9.91
2017-10-27T04:36:38.487Z,9.86
2017-10-27T04:37:39.480Z,9.84
2017-10-27T04:38:38.223Z,9.84
2017-10-27T04:39:38.080Z,9.82
2017-10-27T04:40:37.754Z,9.80
2017-10-27T04:41:38.485Z,9.79
2017-10-27T04:42:38.504Z,9.82
2017-10-27T04:43:38.507Z,9.80
2017-10-27T04:44:38.393Z,9.84
2017-10-27T04:45:38.324Z,9.86
2017-10-27T04:46:38.385Z,9.87
2017-10-27T04:47:38.487Z,9.87
2017-10-27T04:48:38.839Z,9.87
2017-10-27T04:49:39.134Z,9.84
2017-10-27T04:50:38.011Z,9.83
2017-10-27T04:51:37.652Z,9.83
2017-10-27T04:52:43.047Z,9.83
2017-10-27T04:53:38.785Z,9.82
2017-10-27T04:54:39.969Z,9.80
2017-10-27T04:55:38.076Z,9.82
2017-10-27T04:56:38.108Z,9.83
2017-10-27T04:57:38.217Z,9.84
2017-10-27T04:58:39.198Z,9.86
2017-10-27T04:59:38.331Z,9.91
2017-10-27T05:00:38.386Z,9.92
2017-10-27T05:01:38.444Z,9.91
2017-10-27T05:02:38.055Z,9.91
2017-10-27T05:03:38.126Z,9.91
2017-10-27T05:04:37.973Z,9.94
2017-10-27T05:05:38.663Z,9.94
2017-10-27T05:06:38.768Z,9.97
2017-10-27T05:07:38.651Z,9.97
2017-10-27T05:08:39.362Z,9.97
2017-10-27T05:09:38.339Z,9.95
2017-10-27T05:10:38.567Z,9.95
2017-10-27T05:11:38.005Z,9.94
2017-10-27T05:12:38.066Z,9.92
2017-10-27T05:13:38.704Z,9.91
2017-10-27T05:14:39.197Z,9.87
2017-10-27T05:15:37.882Z,9.84
2017-10-27T05:16:38.978Z,9.83
2017-10-27T05:17:37.906Z,9.77
2017-10-27T05:18:38.897Z,9.76
2017-10-27T05:19:38.420Z,9.73
2017-10-27T05:20:38.431Z,9.68
2017-10-27T05:21:38.034Z,9.64
2017-10-27T05:22:37.714Z,9.62
2017-10-27T05:23:38.321Z,9.62
2017-10-27T05:24:38.187Z,9.62
2017-10-27T05:25:38.639Z,9.62
2017-10-27T05:26:38.584Z,9.61
2017-10-27T05:27:38.684Z,9.62
2017-10-27T05:28:38.043Z,9.66
2017-10-27T05:29:37.937Z,9.72
2017-10-27T05:30:39.314Z,9.72
2017-10-27T05:31:38.320Z,9.73
2017-10-27T05:32:38.064Z,9.72
2017-10-27T05:33:38.015Z,9.68
2017-10-27T05:34:37.881Z,9.65
2017-10-27T05:35:39.510Z,9.61
2017-10-27T05:36:37.863Z,9.61
2017-10-27T05:37:38.469Z,9.59
2017-10-27T05:38:38.393Z,9.62
2017-10-27T05:39:38.211Z,9.61
2017-10-27T05:40:38.104Z,9.62
2017-10-27T05:41:38.305Z,9.62
2017-10-27T05:42:38.344Z,9.64
2017-10-27T05:43:38.432Z,9.61
2017-10-27T05:44:38.066Z,9.59
2017-10-27T05:45:38.241Z,9.56
2017-10-27T05:46:38.770Z,9.54
2017-10-27T05:47:39.062Z,9.48
2017-10-27T05:48:38.068Z,9.46
2017-10-27T05:49:38.229Z,9.46
2017-10-27T05:50:37.604Z,9.47
2017-10-27T05:51:39.266Z,9.50
2017-10-27T05:52:38.477Z,9.51
2017-10-27T05:53:38.003Z,9.54
2017-10-27T05:54:38.056Z,9.56
2017-10-27T05:55:38.635Z,9.58
2017-10-27T05:56:39.207Z,9.59
2017-10-27T05:57:38.692Z,9.58
2017-10-27T05:58:38.399Z,9.54
2017-10-27T05:59:38.473Z,9.50
2017-10-27T06:00:38.521Z,9.44
2017-10-27T06:01:38.295Z,9.41
2017-10-27T06:02:38.382Z,9.37
2017-10-27T06:03:39.094Z,9.36
2017-10-27T06:04:38.195Z,9.32
2017-10-27T06:05:38.205Z,9.32
2017-10-27T06:06:38.084Z,9.29
2017-10-27T06:07:38.337Z,9.34
2017-10-27T06:08:38.674Z,9.37
2017-10-27T06:09:38.582Z,9.39
2017-10-27T06:10:38.218Z,9.40
2017-10-27T06:11:38.558Z,9.43
2017-10-27T06:12:38.370Z,9.46
2017-10-27T06:13:38.611Z,9.44
2017-10-27T06:14:39.043Z,9.43
2017-10-27T06:15:37.842Z,9.44
2017-10-27T06:16:38.936Z,9.43
2017-10-27T06:17:37.712Z,9.39
2017-10-27T06:18:39.226Z,9.39
2017-10-27T06:19:38.100Z,9.40
2017-10-27T06:20:38.057Z,9.41
2017-10-27T06:21:38.390Z,9.43
2017-10-27T06:22:38.166Z,9.47
2017-10-27T06:23:38.433Z,9.50
2017-10-27T06:24:38.556Z,9.55
2017-10-27T06:25:37.750Z,9.54
2017-10-27T06:26:38.377Z,9.54
2017-10-27T06:27:38.174Z,9.48
2017-10-27T06:28:38.055Z,9.51
2017-10-27T06:29:38.582Z,9.55
2017-10-27T06:30:38.285Z,9.58
2017-10-27T06:31:38.407Z,9.62
2017-10-27T06:32:38.251Z,9.66
2017-10-27T06:33:38.306Z,9.69
2017-10-27T06:34:38.268Z,9.68
2017-10-27T06:35:38.589Z,9.64
2017-10-27T06:36:39.073Z,9.61
2017-10-27T06:37:37.756Z,9.61
2017-10-27T06:38:38.530Z,9.62
2017-10-27T06:39:39.153Z,9.59
2017-10-27T06:40:38.256Z,9.59
2017-10-27T06:41:38.012Z,9.61
2017-10-27T06:42:37.840Z,9.59
2017-10-27T06:43:38.093Z,9.61
2017-10-27T06:44:37.946Z,9.58
2017-10-27T06:45:38.197Z,9.56
2017-10-27T06:46:38.258Z,9.54
2017-10-27T06:47:38.125Z,9.50
2017-10-27T06:48:38.535Z,9.48
2017-10-27T06:49:38.737Z,9.47
2017-10-27T06:50:38.936Z,9.50
2017-10-27T06:51:38.479Z,9.50
2017-10-27T06:52:38.284Z,9.47
2017-10-27T06:53:38.056Z,9.47
2017-10-27T06:54:38.443Z,9.47
2017-10-27T06:55:39.435Z,9.48
2017-10-27T06:56:38.489Z,9.48
2017-10-27T06:57:38.468Z,9.50
2017-10-27T06:58:38.536Z,9.55
2017-10-27T06:59:38.330Z,9.59
2017-10-27T07:00:38.617Z,9.73
2017-10-27T07:01:39.399Z,9.86
2017-10-27T07:02:38.171Z,9.91
2017-10-27T07:03:38.041Z,9.84
2017-10-27T07:04:38.342Z,9.79
2017-10-27T07:05:38.704Z,9.79
2017-10-27T07:06:38.593Z,9.80
2017-10-27T07:07:38.815Z,9.82
2017-10-27T07:08:40.057Z,9.84
2017-10-27T07:09:38.196Z,9.83
2017-10-27T07:10:38.452Z,9.87
2017-10-27T07:11:38.298Z,9.89
2017-10-27T07:12:38.172Z,9.86
2017-10-27T07:13:38.349Z,9.80
2017-10-27T07:14:38.478Z,9.76
2017-10-27T07:15:38.040Z,9.73
2017-10-27T07:16:38.220Z,9.74
2017-10-27T07:17:37.720Z,9.72
2017-10-27T07:18:39.360Z,9.72
2017-10-27T07:19:38.689Z,9.74
2017-10-27T07:20:38.030Z,9.73
2017-10-27T07:21:37.830Z,9.73
2017-10-27T07:22:38.135Z,9.73
2017-10-27T07:23:38.407Z,9.73
2017-10-27T07:24:39.013Z,9.74
2017-10-27T07:25:37.767Z,9.73
2017-10-27T07:26:38.560Z,9.74
2017-10-27T07:27:38.672Z,9.73
2017-10-27T07:28:38.577Z,9.74
2017-10-27T07:29:39.283Z,9.76
2017-10-27T07:30:38.361Z,9.76
2017-10-27T07:31:38.521Z,9.79
2017-10-27T07:32:39.009Z,9.82
2017-10-27T07:33:38.933Z,9.83
2017-10-27T07:34:37.766Z,9.86
2017-10-27T07:35:39.223Z,9.84
2017-10-27T07:36:38.103Z,9.87
2017-10-27T07:37:38.043Z,9.91
2017-10-27T07:38:37.727Z,9.94
2017-10-27T07:39:38.567Z,9.94
2017-10-27T07:40:38.558Z,9.97
2017-10-27T07:41:39.186Z,10.10
2017-10-27T07:42:38.456Z,10.25
2017-10-27T07:43:38.532Z,10.37
2017-10-27T07:44:38.583Z,10.44
2017-10-27T07:45:38.513Z,10.48
2017-10-27T07:46:38.710Z,10.48
2017-10-27T07:47:39.020Z,10.54
2017-10-27T07:48:38.003Z,10.60
2017-10-27T07:49:38.581Z,10.71
2017-10-27T07:50:38.437Z,10.74
2017-10-27T07:51:38.668Z,10.68
2017-10-27T07:52:38.589Z,10.60
2017-10-27T07:53:38.834Z,10.57
2017-10-27T07:54:38.037Z,10.48
2017-10-27T07:55:38.130Z,10.40
2017-10-27T07:56:37.807Z,10.34
2017-10-27T07:57:39.259Z,10.30
2017-10-27T07:58:39.131Z,10.33
2017-10-27T07:59:38.801Z,10.31
2017-10-27T08:00:38.829Z,10.28
2017-10-27T08:01:38.273Z,10.30
2017-10-27T08:02:38.235Z,10.30
2017-10-27T08:03:38.231Z,10.34
2017-10-27T08:04:39.231Z,10.37
2017-10-27T08:05:38.758Z,10.40
2017-10-27T08:06:37.950Z,10.46
2017-10-27T08:07:37.944Z,10.49
2017-10-27T08:08:38.342Z,10.68
2017-10-27T08:09:38.660Z,10.86
2017-10-27T08:10:37.757Z,10.97
2017-10-27T08:11:39.755Z,11.14
2017-10-27T08:12:38.607Z,11.35
2017-10-27T08:13:37.991Z,11.50
2017-10-27T08:14:38.487Z,11.68
2017-10-27T08:15:38.654Z,11.87
2017-10-27T08:16:38.258Z,11.95
2017-10-27T08:17:38.195Z,11.84
2017-10-27T08:18:38.567Z,11.83
2017-10-27T08:19:39.423Z,11.70
2017-10-27T08:20:38.357Z,11.69
2017-10-27T08:21:38.308Z,11.70
2017-10-27T08:22:38.493Z,11.80
2017-10-27T08:23:39.117Z,11.88
2017-10-27T08:24:38.059Z,12.06
2017-10-27T08:25:38.627Z,12.15
2017-10-27T08:26:37.674Z,12.12
2017-10-27T08:27:38.660Z,12.07
2017-10-27T08:28:38.952Z,12.17
2017-10-27T08:29:37.794Z,12.20
2017-10-27T08:30:39.187Z,12.20
2017-10-27T08:31:38.510Z,12.15
2017-10-27T08:32:38.183Z,12.09
2017-10-27T08:33:38.325Z,12.04
2017-10-27T08:34:38.259Z,12.12
2017-10-27T08:35:38.640Z,12.15
2017-10-27T08:36:38.922Z,12.13
2017-10-27T08:37:39.444Z,12.36
2017-10-27T08:38:38.969Z,12.98
2017-10-27T08:39:38.201Z,13.95
2017-10-27T08:40:38.606Z,14.17
2017-10-27T08:41:38.456Z,13.75
2017-10-27T08:42:38.773Z,13.15
2017-10-27T08:43:37.702Z,12.91
2017-10-27T08:44:38.759Z,13.27
2017-10-27T08:45:38.697Z,13.19
2017-10-27T08:46:37.755Z,13.08
2017-10-27T08:47:37.804Z,13.44
2017-10-27T08:48:38.643Z,14.00
2017-10-27T08:49:38.757Z,14.47
2017-10-27T08:50:38.758Z,14.05
2017-10-27T08:51:38.457Z,13.44
2017-10-27T08:52:38.746Z,13.38
2017-10-27T08:53:38.138Z,13.47
2017-10-27T08:54:38.933Z,13.71
2017-10-27T08:55:37.906Z,13.96
2017-10-27T08:56:37.740Z,13.78
2017-10-27T08:57:39.163Z,13.85
2017-10-27T08:58:38.402Z,13.53
2017-10-27T08:59:39.218Z,13.30
2017-10-27T09:00:38.464Z,13.16
2017-10-27T09:01:37.926Z,13.50
2017-10-27T09:02:38.043Z,13.18
2017-10-27T09:03:38.098Z,14.37
2017-10-27T09:04:38.464Z,15.22
2017-10-27T09:05:38.349Z,16.60
2017-10-27T09:06:38.442Z,15.68
2017-10-27T09:07:39.003Z,16.75
2017-10-27T09:08:37.913Z,17.52
2017-10-27T09:09:39.508Z,17.90
2017-10-27T09:10:38.846Z,18.07
2017-10-27T09:11:38.116Z,17.45
2017-10-27T09:12:38.124Z,16.50
2017-10-27T09:13:38.867Z,15.67
2017-10-27T09:14:41.358Z,15.24
2017-10-27T09:15:37.746Z,15.36
2017-10-27T09:16:38.527Z,16.17
2017-10-27T09:17:39.049Z,16.00
2017-10-27T09:18:38.973Z,15.28
2017-10-27T09:19:38.699Z,14.54
2017-10-27T09:20:38.047Z,14.20
2017-10-27T09:21:38.895Z,15.82
2017-10-27T09:22:39.306Z,14.85
2017-10-27T09:23:40.647Z,14.91
2017-10-27T09:24:38.974Z,16.12
2017-10-27T09:25:38.367Z,17.63
2017-10-27T09:26:38.755Z,17.11
2017-10-27T09:27:37.674Z,16.97
2017-10-27T09:28:38.551Z,15.57
2017-10-27T09:29:39.883Z,14.84
2017-10-27T09:30:39.008Z,14.68
2017-10-27T09:31:37.901Z,15.65
2017-10-27T09:32:37.726Z,16.58
2017-10-27T09:33:38.703Z,16.58
2017-10-27T09:34:38.118Z,18.40
2017-10-27T09:35:38.595Z,19.08
2017-10-27T09:36:39.256Z,20.21
2017-10-27T09:37:38.878Z,20.36
2017-10-27T09:38:38.974Z,20.67
2017-10-27T09:39:38.462Z,19.96
2017-10-27T09:40:38.403Z,19.79
2017-10-27T09:41:38.672Z,19.95
2017-10-27T09:42:39.465Z,17.94
2017-10-27T09:43:38.710Z,17.01
2017-10-27T09:44:37.630Z,16.89
2017-10-27T09:45:39.060Z,17.08
2017-10-27T09:46:38.289Z,17.39
2017-10-27T09:47:38.736Z,16.91
2017-10-27T09:48:38.013Z,16.24
2017-10-27T09:49:38.193Z,15.73
2017-10-27T09:50:38.372Z,15.68
2017-10-27T09:51:38.306Z,17.89
2017-10-27T09:52:38.474Z,19.40
2017-10-27T09:53:39.214Z,19.02
2017-10-27T09:54:38.101Z,17.60
2017-10-27T09:55:38.197Z,17.26
2017-10-27T09:56:37.692Z,18.68
2017-10-27T09:57:38.976Z,17.86
2017-10-27T09:58:38.680Z,18.80
2017-10-27T09:59:38.123Z,17.90
2017-10-27T10:00:38.230Z,17.02
2017-10-27T10:01:38.054Z,16.43
2017-10-27T10:02:38.158Z,16.21
2017-10-27T10:03:38.722Z,16.02
2017-10-27T10:04:38.230Z,15.94
2017-10-27T10:05:38.429Z,15.82
2017-10-27T10:06:38.407Z,15.58
2017-10-27T10:07:38.671Z,15.37
2017-10-27T10:08:39.369Z,15.95
2017-10-27T10:09:38.307Z,15.75
2017-10-27T10:10:38.434Z,16.09
2017-10-27T10:11:39.640Z,17.45
2017-10-27T10:12:38.155Z,16.94
2017-10-27T10:13:38.122Z,16.49
2017-10-27T10:14:40.206Z,15.77
2017-10-27T10:15:38.611Z,15.62
2017-10-27T10:16:38.761Z,15.22
2017-10-27T10:17:37.795Z,16.81
2017-10-27T10:18:37.982Z,18.18
2017-10-27T10:19:38.760Z,16.15
2017-10-27T10:20:38.014Z,18.37
2017-10-27T10:21:37.858Z,19.71
2017-10-27T10:22:38.064Z,18.78
2017-10-27T10:23:38.001Z,17.38
2017-10-27T10:24:38.782Z,17.16
2017-10-27T10:25:38.079Z,16.87
2017-10-27T10:26:38.551Z,17.87
2017-10-27T10:27:38.950Z,19.00
2017-10-27T10:28:38.075Z,20.24
2017-10-27T10:29:38.723Z,21.06
2017-10-27T10:30:37.689Z,21.99
2017-10-27T10:31:39.156Z,22.11
2017-10-27T10:32:38.871Z,22.53
2017-10-27T10:33:38.434Z,22.51
2017-10-27T10:34:38.707Z,22.53
2017-10-27T10:35:38.205Z,22.65
2017-10-27T10:36:38.235Z,21.79
2017-10-27T10:37:38.130Z,19.95
2017-10-27T10:38:38.259Z,20.13
2017-10-27T10:39:39.140Z,20.36
2017-10-27T10:40:37.915Z,20.13
2017-10-27T10:41:39.199Z,19.92
2017-10-27T10:42:38.483Z,20.62
2017-10-27T10:43:38.547Z,20.16
2017-10-27T10:44:39.368Z,21.39
2017-10-27T10:45:38.306Z,21.83
2017-10-27T10:46:39.077Z,20.90
2017-10-27T10:47:38.640Z,20.26
2017-10-27T10:48:39.204Z,20.32
2017-10-27T10:49:38.615Z,21.17
2017-10-27T10:50:38.748Z,21.89
2017-10-27T10:51:37.755Z,22.23
2017-10-27T10:52:37.985Z,23.05
2017-10-27T10:53:38.261Z,23.66
2017-10-27T10:54:38.438Z,21.35
2017-10-27T10:55:38.121Z,22.65
2017-10-27T10:56:39.069Z,22.47
2017-10-27T10:57:37.940Z,23.17
2017-10-27T10:58:37.886Z,22.45
2017-10-27T10:59:38.327Z,19.33
2017-10-27T11:00:38.217Z,17.59
2017-10-27T11:01:38.663Z,16.69
2017-10-27T11:02:38.302Z,19.62
2017-10-27T11:03:38.256Z,21.32
2017-10-27T11:04:38.227Z,22.59
2017-10-27T11:05:39.182Z,23.78
2017-10-27T11:06:38.757Z,23.63
2017-10-27T11:07:38.713Z,23.88
2017-10-27T11:08:38.163Z,24.60
2017-10-27T11:09:38.465Z,25.03
2017-10-27T11:10:38.587Z,22.25
2017-10-27T11:11:37.990Z,20.10
2017-10-27T11:12:38.633Z,19.07
2017-10-27T11:13:38.638Z,18.89
2017-10-27T11:14:37.883Z,18.00
2017-10-27T11:15:38.005Z,17.71
2017-10-27T11:16:38.086Z,19.66
2017-10-27T11:17:39.002Z,20.92
2017-10-27T11:18:38.031Z,22.10
2017-10-27T11:19:38.765Z,21.60
2017-10-27T11:20:37.868Z,20.63
2017-10-27T11:21:38.589Z,19.86
2017-10-27T11:22:41.575Z,18.78
2017-10-27T11:23:38.517Z,19.19
2017-10-27T11:24:38.477Z,20.78
2017-10-27T11:25:37.548Z,19.14
2017-10-27T11:26:38.920Z,19.49
2017-10-27T11:27:38.622Z,19.09
2017-10-27T11:28:38.610Z,19.52
2017-10-27T11:29:39.539Z,21.06
2017-10-27T11:30:38.592Z,20.44
2017-10-27T11:31:38.359Z,20.13
2017-10-27T11:32:38.878Z,19.45
2017-10-27T11:33:37.740Z,18.31
2017-10-27T11:34:37.828Z,17.12
2017-10-27T11:35:38.138Z,17.04
2017-10-27T11:36:38.594Z,16.97
2017-10-27T11:37:38.775Z,16.89
2017-10-27T11:38:38.160Z,16.69
2017-10-27T11:39:38.353Z,16.47
2017-10-27T11:40:38.347Z,15.98
2017-10-27T11:41:37.986Z,15.65
2017-10-27T11:42:38.711Z,15.58
2017-10-27T11:43:37.694Z,15.51
2017-10-27T11:44:37.587Z,15.54
2017-10-27T11:45:38.521Z,15.51
2017-10-27T11:46:38.095Z,15.33
2017-10-27T11:47:39.489Z,15.22
2017-10-27T11:48:38.932Z,15.15
2017-10-27T11:49:38.955Z,15.27
2017-10-27T11:50:38.919Z,15.19
2017-10-27T11:51:38.573Z,14.92
2017-10-27T11:52:39.699Z,14.88
2017-10-27T11:53:38.456Z,14.58
2017-10-27T11:54:38.908Z,14.14
2017-10-27T11:55:38.137Z,13.65
2017-10-27T11:56:39.335Z,13.31
2017-10-27T11:57:37.926Z,12.95
2017-10-27T11:58:38.965Z,12.64
2017-10-27T11:59:38.384Z,12.32
2017-10-27T12:00:38.955Z,12.22
2017-10-27T12:01:38.680Z,12.12
2017-10-27T12:02:38.572Z,12.12
2017-10-27T12:03:39.766Z,12.13
2017-10-27T12:04:39.189Z,12.15
2017-10-27T12:05:38.389Z,12.25
2017-10-27T12:06:38.312Z,12.24
2017-10-27T12:07:38.138Z,12.09
2017-10-27T12:08:38.632Z,12.02
2017-10-27T12:09:37.940Z,11.99
2017-10-27T12:10:38.270Z,11.97
2017-10-27T12:11:39.606Z,12.24
2017-10-27T12:12:38.205Z,13.85
2017-10-27T12:13:40.113Z,15.39
2017-10-27T12:14:40.412Z,17.08
2017-10-27T12:15:38.213Z,18.28
2017-10-27T12:16:39.286Z,18.78
2017-10-27T12:17:37.866Z,18.18
2017-10-27T12:18:38.200Z,16.94
2017-10-27T12:19:38.636Z,15.92
2017-10-27T12:20:38.864Z,15.86
2017-10-27T12:21:37.904Z,15.84
2017-10-27T12:22:38.684Z,15.54
2017-10-27T12:23:38.754Z,16.15
2017-10-27T12:24:37.709Z,15.55
2017-10-27T12:25:38.132Z,15.31
2017-10-27T12:26:40.154Z,15.09
2017-10-27T12:27:38.185Z,15.09
2017-10-27T12:28:38.774Z,14.85
2017-10-27T12:29:37.677Z,14.97
2017-10-27T12:30:38.833Z,14.66
2017-10-27T12:31:37.723Z,14.35
2017-10-27T12:32:38.467Z,14.44
2017-10-27T12:33:39.017Z,14.54
2017-10-27T12:34:38.045Z,14.55
2017-10-27T12:35:38.703Z,14.70
2017-10-27T12:36:39.858Z,15.04
2017-10-27T12:37:38.449Z,15.44
2017-10-27T12:38:38.119Z,16.24
2017-10-27T12:39:38.951Z,16.26
2017-10-27T12:40:38.025Z,17.56
2017-10-27T12:41:38.333Z,18.88
2017-10-27T12:42:40.011Z,19.33
2017-10-27T12:43:38.113Z,19.63
2017-10-27T12:44:38.762Z,19.45
2017-10-27T12:45:37.704Z,19.37
2017-10-27T12:46:37.776Z,19.08
2017-10-27T12:47:37.991Z,18.28
2017-10-27T12:48:38.645Z,18.68
2017-10-27T12:49:37.742Z,18.40
2017-10-27T12:50:38.989Z,19.02
2017-10-27T12:51:37.972Z,19.69
2017-10-27T12:52:38.658Z,20.26
2017-10-27T12:53:38.502Z,20.60
2017-10-27T12:54:38.508Z,20.77
2017-10-27T12:55:37.732Z,21.18
2017-10-27T12:56:38.548Z,21.75
2017-10-27T12:57:38.015Z,22.51
2017-10-27T12:58:39.427Z,21.14
2017-10-27T12:59:38.749Z,20.81
2017-10-27T13:00:39.333Z,19.82
2017-10-27T13:01:39.368Z,19.48
2017-10-27T13:02:38.530Z,19.86